createdAt,value
2023-09-20T00:02:13.946Z,0.76
2023-09-20T00:04:41.837Z,0.96
2023-09-20T00:07:08.720Z,0.62
2023-09-20T00:09:36.213Z,1.11
2023-09-20T00:12:03.537Z,1.02
2023-09-20T00:14:30.695Z,1.09
2023-09-20T00:16:58.887Z,0.90
2023-09-20T00:19:25.688Z,0.81
2023-09-20T00:21:52.458Z,0.78
2023-09-20T00:24:19.178Z,0.95
2023-09-20T00:26:45.933Z,0.81
2023-09-20T00:29:12.741Z,0.64
2023-09-20T00:31:39.703Z,0.78
2023-09-20T00:34:06.551Z,0.50
2023-09-20T00:36:33.687Z,0.59
2023-09-20T00:39:02.124Z,0.48
2023-09-20T00:41:29.381Z,0.56
2023-09-20T00:43:56.428Z,0.50
2023-09-20T00:46:25.148Z,0.72
2023-09-20T00:48:52.735Z,0.37
2023-09-20T00:51:23.467Z,0.39
2023-09-20T00:53:54.179Z,0.54
2023-09-20T00:56:22.561Z,0.61
2023-09-20T00:58:52.522Z,0.43
2023-09-20T01:01:20.194Z,0.53
2023-09-20T01:03:49.056Z,0.61
2023-09-20T01:06:21.198Z,0.60
2023-09-20T01:08:48.333Z,0.48
2023-09-20T01:11:16.842Z,0.53
2023-09-20T01:13:45.229Z,0.60
2023-09-20T01:16:14.417Z,0.36
2023-09-20T01:18:41.444Z,0.49
2023-09-20T01:21:08.554Z,0.43
2023-09-20T01:23:36.195Z,0.22
2023-09-20T01:26:05.064Z,0.31
2023-09-20T01:28:31.970Z,0.38
2023-09-20T01:31:01.752Z,0.30
2023-09-20T01:33:28.851Z,0.61
2023-09-20T01:35:55.911Z,0.51
2023-09-20T01:38:22.843Z,0.66
2023-09-20T01:40:49.549Z,0.51
2023-09-20T01:43:16.538Z,0.21
2023-09-20T01:45:44.951Z,0.21
2023-09-20T01:48:13.195Z,0.08
2023-09-20T01:50:43.197Z,0.28
2023-09-20T01:53:12.382Z,0.47
2023-09-20T01:55:43.998Z,0.59
2023-09-20T01:58:14.880Z,0.82
2023-09-20T02:00:42.748Z,0.97
2023-09-20T02:03:19.263Z,1.09
2023-09-20T02:05:49.241Z,1.12
2023-09-20T02:08:17.902Z,1.17
2023-09-20T02:10:46.397Z,1.39
2023-09-20T02:13:14.705Z,1.26
2023-09-20T02:15:42.652Z,0.97
2023-09-20T02:18:10.582Z,0.79
2023-09-20T02:20:39.449Z,0.81
2023-09-20T02:23:07.890Z,1.10
2023-09-20T02:25:35.002Z,1.18
2023-09-20T02:28:02.595Z,1.18
2023-09-20T02:30:33.004Z,1.04
2023-09-20T02:33:03.901Z,0.97
2023-09-20T02:35:31.191Z,0.94
2023-09-20T02:38:00.550Z,1.01
2023-09-20T02:40:28.457Z,0.90
2023-09-20T02:43:04.218Z,0.50
2023-09-20T02:45:31.353Z,0.37
2023-09-20T02:48:04.322Z,0.28
2023-09-20T02:50:31.241Z,0.57
2023-09-20T02:52:58.104Z,0.66
2023-09-20T02:55:25.208Z,0.36
2023-09-20T02:57:53.583Z,0.44
2023-09-20T03:00:23.290Z,0.60
2023-09-20T03:02:55.087Z,0.79
2023-09-20T03:05:25.700Z,0.35
2023-09-20T03:07:54.606Z,0.32
2023-09-20T03:10:22.463Z,0.83
2023-09-20T03:12:53.026Z,0.68
2023-09-20T03:15:23.107Z,0.09
2023-09-20T03:17:55.204Z,-0.51
2023-09-20T03:20:25.242Z,-0.16
2023-09-20T03:23:00.647Z,0.04
2023-09-20T03:25:39.065Z,0.01
2023-09-20T03:28:14.028Z,0.10
2023-09-20T03:30:41.235Z,0.30
2023-09-20T03:33:10.464Z,0.19
2023-09-20T03:35:38.805Z,0.11
2023-09-20T03:38:06.610Z,0.05
2023-09-20T03:40:33.606Z,-0.23
2023-09-20T03:43:08.641Z,-0.28
2023-09-20T03:45:39.710Z,-0.52
2023-09-20T03:48:07.372Z,-0.35
2023-09-20T03:50:34.405Z,-0.26
2023-09-20T03:53:04.256Z,-0.22
2023-09-20T03:55:31.170Z,-0.27
2023-09-20T03:57:58.060Z,-0.29
2023-09-20T04:00:28.510Z,0.12
2023-09-20T04:02:57.964Z,0.09
2023-09-20T04:05:39.677Z,-0.10
2023-09-20T04:08:13.172Z,-0.14
2023-09-20T04:10:42.315Z,0.14
2023-09-20T04:13:09.815Z,-0.14
2023-09-20T04:15:38.916Z,-0.02
2023-09-20T04:18:06.259Z,-0.07
2023-09-20T04:20:34.030Z,0.02
2023-09-20T04:23:01.457Z,0.13
2023-09-20T04:25:28.421Z,-0.02
2023-09-20T04:27:55.380Z,-0.15
2023-09-20T04:30:23.005Z,-0.30
2023-09-20T04:32:50.305Z,-0.38
2023-09-20T04:35:33.330Z,-0.45
2023-09-20T04:38:00.623Z,-0.21
2023-09-20T04:40:27.555Z,-0.29
2023-09-20T04:42:54.652Z,-0.11
2023-09-20T04:45:23.505Z,-0.42
2023-09-20T04:47:51.676Z,-0.64
2023-09-20T04:50:18.816Z,-0.46
2023-09-20T04:52:47.891Z,-0.19
2023-09-20T04:55:16.363Z,0.04
2023-09-20T04:57:43.180Z,-0.09
2023-09-20T05:00:10.395Z,-0.53
2023-09-20T05:02:37.423Z,-0.40
2023-09-20T05:05:06.534Z,-0.30
2023-09-20T05:07:34.939Z,-0.29
2023-09-20T05:10:02.634Z,-0.22
2023-09-20T05:12:30.435Z,-0.14
2023-09-20T05:14:57.962Z,-0.22
2023-09-20T05:17:24.998Z,-0.28
2023-09-20T05:19:51.830Z,-0.39
2023-09-20T05:22:19.031Z,-0.56
2023-09-20T05:24:45.823Z,-0.56
2023-09-20T05:27:12.536Z,-0.42
2023-09-20T05:29:39.273Z,-0.06
2023-09-20T05:32:06.745Z,-0.02
2023-09-20T05:34:35.868Z,0.17
2023-09-20T05:37:02.683Z,0.53
2023-09-20T05:39:31.429Z,0.47
2023-09-20T05:41:59.572Z,0.61
2023-09-20T05:44:27.211Z,1.01
2023-09-20T05:46:54.179Z,1.24
2023-09-20T05:49:24.084Z,0.93
2023-09-20T05:51:53.903Z,0.60
2023-09-20T05:54:23.530Z,1.51
2023-09-20T05:56:52.354Z,1.77
2023-09-20T05:59:19.442Z,1.81
2023-09-20T06:01:46.292Z,2.46
2023-09-20T06:04:13.164Z,2.51
2023-09-20T06:06:40.149Z,2.65
2023-09-20T06:09:07.031Z,3.84
2023-09-20T06:11:33.797Z,4.69
2023-09-20T06:14:00.521Z,5.42
2023-09-20T06:16:27.414Z,6.06
2023-09-20T06:19:03.731Z,4.54
2023-09-20T06:21:34.032Z,2.51
2023-09-20T06:24:01.061Z,2.31
2023-09-20T06:26:28.433Z,2.12
2023-09-20T06:28:55.985Z,2.31
2023-09-20T06:31:22.773Z,2.71
2023-09-20T06:33:49.608Z,2.66
2023-09-20T06:36:22.087Z,3.03
2023-09-20T06:38:49.596Z,3.22
2023-09-20T06:41:17.258Z,3.17
2023-09-20T06:43:44.148Z,3.76
2023-09-20T06:46:11.619Z,3.62
2023-09-20T06:48:39.647Z,3.89
2023-09-20T06:51:06.855Z,4.34
2023-09-20T06:53:34.105Z,4.44
2023-09-20T06:56:01.337Z,4.89
2023-09-20T06:58:29.740Z,5.06
2023-09-20T07:00:56.877Z,5.14
2023-09-20T07:03:23.951Z,4.94
2023-09-20T07:05:52.321Z,5.18
2023-09-20T07:08:21.079Z,5.26
2023-09-20T07:10:47.888Z,5.62
2023-09-20T07:13:19.776Z,5.48
2023-09-20T07:15:47.805Z,6.45
2023-09-20T07:18:15.228Z,6.04
2023-09-20T07:20:44.598Z,6.06
2023-09-20T07:23:12.885Z,7.49
2023-09-20T07:25:40.825Z,6.64
2023-09-20T07:28:09.184Z,6.90
2023-09-20T07:30:42.094Z,7.41
2023-09-20T07:33:14.798Z,7.09
2023-09-20T07:35:49.560Z,7.87
2023-09-20T07:38:28.704Z,7.98
2023-09-20T07:41:16.009Z,8.02
2023-09-20T07:43:43.639Z,8.11
2023-09-20T07:46:11.257Z,8.63
2023-09-20T07:48:51.654Z,8.79
2023-09-20T07:51:22.312Z,9.64
2023-09-20T07:53:50.993Z,9.68
2023-09-20T07:56:18.460Z,9.96
2023-09-20T07:58:45.967Z,10.75
2023-09-20T08:01:23.163Z,10.89
2023-09-20T08:03:55.923Z,10.69
2023-09-20T08:06:26.836Z,10.87
2023-09-20T08:08:53.716Z,11.25
2023-09-20T08:11:22.349Z,11.56
2023-09-20T08:13:54.005Z,11.84
2023-09-20T08:16:23.051Z,11.40
2023-09-20T08:19:17.710Z,11.17
2023-09-20T08:21:47.155Z,11.96
2023-09-20T08:24:32.711Z,12.02
2023-09-20T08:27:19.555Z,12.16
2023-09-20T08:30:05.912Z,11.39
2023-09-20T08:32:51.565Z,12.26
2023-09-20T08:35:37.033Z,12.53
2023-09-20T08:38:22.649Z,12.42
2023-09-20T08:41:08.281Z,12.43
2023-09-20T08:43:54.121Z,12.53
2023-09-20T08:46:42.069Z,11.95
2023-09-20T08:49:27.635Z,13.29
2023-09-20T08:52:28.177Z,13.21
2023-09-20T08:55:15.657Z,13.19
2023-09-20T08:58:01.448Z,13.18
2023-09-20T09:00:32.320Z,13.71
2023-09-20T09:03:01.203Z,13.81
2023-09-20T09:05:30.241Z,11.88
2023-09-20T09:08:01.644Z,13.29
2023-09-20T09:10:29.004Z,13.64
2023-09-20T09:12:57.258Z,13.02
2023-09-20T09:15:25.319Z,12.48
2023-09-20T09:17:52.757Z,12.33
2023-09-20T09:20:21.365Z,12.95
2023-09-20T09:22:50.214Z,13.30
2023-09-20T09:25:25.795Z,13.60
2023-09-20T09:27:52.948Z,14.27
2023-09-20T09:30:19.840Z,13.97
2023-09-20T09:32:49.889Z,13.44
2023-09-20T09:35:27.352Z,14.82
2023-09-20T09:38:02.752Z,15.36
2023-09-20T09:40:30.353Z,13.47
2023-09-20T09:43:12.294Z,14.73
2023-09-20T09:45:39.844Z,14.10
2023-09-20T09:48:08.492Z,14.92
2023-09-20T09:50:40.099Z,14.27
2023-09-20T09:53:10.190Z,14.35
2023-09-20T09:55:39.420Z,14.84
2023-09-20T09:58:06.784Z,15.54
2023-09-20T10:00:34.474Z,16.00
2023-09-20T10:03:08.583Z,15.19
2023-09-20T10:05:36.617Z,15.93
2023-09-20T10:08:06.532Z,15.85
2023-09-20T10:10:34.366Z,15.56
2023-09-20T10:13:04.427Z,15.99
2023-09-20T10:15:34.616Z,16.25
2023-09-20T10:18:01.527Z,15.47
2023-09-20T10:21:06.238Z,15.90
2023-09-20T10:23:36.422Z,15.58
2023-09-20T10:26:03.385Z,15.60
2023-09-20T10:28:39.152Z,16.17
2023-09-20T10:31:06.403Z,16.20
2023-09-20T10:33:42.708Z,15.52
2023-09-20T10:36:19.539Z,15.06
2023-09-20T10:38:47.666Z,16.22
2023-09-20T10:41:16.232Z,15.99
2023-09-20T10:43:45.427Z,16.24
2023-09-20T10:46:19.771Z,16.65
2023-09-20T10:48:51.982Z,16.62
2023-09-20T10:51:50.725Z,17.12
2023-09-20T10:54:30.774Z,16.40
2023-09-20T10:57:12.205Z,16.77
2023-09-20T10:59:41.988Z,16.18
2023-09-20T11:02:11.115Z,16.07
2023-09-20T11:04:39.689Z,16.19
2023-09-20T11:07:08.234Z,15.92
2023-09-20T11:09:35.489Z,15.84
2023-09-20T11:12:10.705Z,15.78
2023-09-20T11:14:41.446Z,16.13
2023-09-20T11:17:09.992Z,17.10
2023-09-20T11:19:39.869Z,17.07
2023-09-20T11:22:06.965Z,17.15
2023-09-20T11:24:35.742Z,17.17
2023-09-20T11:27:02.502Z,15.88
2023-09-20T11:29:29.379Z,17.19
2023-09-20T11:31:58.099Z,17.07
2023-09-20T11:34:26.732Z,16.16
2023-09-20T11:36:58.330Z,16.85
2023-09-20T11:39:31.252Z,16.73
2023-09-20T11:42:02.752Z,16.19
2023-09-20T11:44:35.136Z,17.29
2023-09-20T11:47:02.243Z,16.69
2023-09-20T11:49:29.284Z,17.27
2023-09-20T11:51:59.253Z,17.75
2023-09-20T11:54:29.986Z,17.77
2023-09-20T11:57:00.869Z,16.67
2023-09-20T11:59:28.756Z,17.20
2023-09-20T12:01:56.404Z,16.90
2023-09-20T12:04:23.688Z,16.72
2023-09-20T12:06:52.282Z,17.38
2023-09-20T12:09:19.531Z,16.84
2023-09-20T12:11:46.721Z,17.54
2023-09-20T12:14:15.682Z,17.36
2023-09-20T12:16:48.586Z,16.56
2023-09-20T12:19:17.278Z,17.15
2023-09-20T12:21:47.224Z,16.84
2023-09-20T12:24:15.286Z,15.92
2023-09-20T12:26:42.705Z,17.32
2023-09-20T12:29:09.683Z,17.42
2023-09-20T12:31:36.447Z,17.32
2023-09-20T12:34:03.368Z,17.10
2023-09-20T12:36:33.365Z,17.67
2023-09-20T12:39:04.471Z,17.67
2023-09-20T12:41:31.250Z,17.37
2023-09-20T12:43:58.234Z,17.22
2023-09-20T12:46:25.970Z,17.64
2023-09-20T12:48:52.947Z,17.35
2023-09-20T12:51:19.775Z,17.64
2023-09-20T12:53:46.666Z,16.99
2023-09-20T12:56:14.856Z,16.95
2023-09-20T12:58:42.792Z,16.68
2023-09-20T13:01:13.844Z,17.57
2023-09-20T13:03:45.550Z,16.66
2023-09-20T13:06:15.886Z,16.52
2023-09-20T13:08:42.917Z,16.84
2023-09-20T13:11:11.826Z,16.76
2023-09-20T13:13:42.408Z,16.57
2023-09-20T13:16:15.786Z,17.33
2023-09-20T13:18:45.149Z,17.07
2023-09-20T13:21:11.889Z,17.11
2023-09-20T13:23:38.724Z,16.40
2023-09-20T13:26:05.936Z,16.57
2023-09-20T13:28:32.759Z,17.38
2023-09-20T13:31:01.283Z,17.65
2023-09-20T13:33:28.466Z,17.17
2023-09-20T13:35:57.437Z,16.77
2023-09-20T13:38:24.971Z,16.81
2023-09-20T13:40:52.621Z,17.02
2023-09-20T13:43:19.914Z,16.86
2023-09-20T13:45:46.898Z,16.58
2023-09-20T13:48:15.273Z,16.87
2023-09-20T13:50:43.592Z,17.05
2023-09-20T13:53:10.695Z,16.75
2023-09-20T13:55:37.521Z,16.58
2023-09-20T13:58:04.483Z,16.78
2023-09-20T14:00:31.430Z,17.24
2023-09-20T14:02:59.342Z,16.92
2023-09-20T14:05:27.845Z,16.89
2023-09-20T14:07:59.143Z,17.13
2023-09-20T14:10:35.560Z,17.07
2023-09-20T14:13:02.850Z,16.39
2023-09-20T14:15:31.358Z,16.24
2023-09-20T14:17:58.830Z,16.79
2023-09-20T14:20:28.637Z,16.98
2023-09-20T14:22:56.532Z,16.17
2023-09-20T14:25:25.553Z,16.73
2023-09-20T14:27:54.839Z,15.65
2023-09-20T14:30:22.527Z,14.72
2023-09-20T14:32:52.573Z,13.58
2023-09-20T14:35:19.610Z,13.76
2023-09-20T14:37:52.504Z,13.58
2023-09-20T14:40:23.684Z,13.42
2023-09-20T14:42:53.393Z,14.19
2023-09-20T14:45:23.805Z,15.16
2023-09-20T14:47:52.132Z,14.48
2023-09-20T14:50:20.105Z,15.43
2023-09-20T14:52:49.363Z,14.63
2023-09-20T14:55:19.665Z,15.71
2023-09-20T14:57:54.593Z,16.14
2023-09-20T15:00:23.737Z,15.77
2023-09-20T15:02:56.238Z,16.76
2023-09-20T15:05:25.227Z,15.88
2023-09-20T15:07:56.462Z,16.14
2023-09-20T15:10:27.773Z,15.93
2023-09-20T15:13:02.400Z,15.07
2023-09-20T15:15:30.656Z,15.41
2023-09-20T15:17:59.731Z,14.66
2023-09-20T15:20:28.564Z,15.06
2023-09-20T15:22:57.032Z,15.09
2023-09-20T15:25:26.340Z,15.02
2023-09-20T15:27:56.232Z,14.66
2023-09-20T15:30:24.674Z,15.16
2023-09-20T15:32:51.964Z,14.41
2023-09-20T15:35:19.529Z,14.71
2023-09-20T15:37:47.043Z,14.42
2023-09-20T15:40:16.707Z,14.27
2023-09-20T15:42:46.776Z,13.46
2023-09-20T15:45:15.261Z,13.41
2023-09-20T15:47:42.340Z,13.45
2023-09-20T15:50:10.178Z,12.89
2023-09-20T15:52:43.218Z,12.85
2023-09-20T15:55:12.432Z,12.44
2023-09-20T15:57:39.292Z,12.54
2023-09-20T16:00:14.919Z,12.48
2023-09-20T16:02:43.059Z,12.51
2023-09-20T16:05:15.543Z,12.37
2023-09-20T16:07:43.321Z,12.41
2023-09-20T16:10:15.577Z,11.74
2023-09-20T16:12:45.010Z,12.02
2023-09-20T16:15:18.738Z,12.01
2023-09-20T16:17:46.288Z,11.93
2023-09-20T16:20:15.967Z,11.90
2023-09-20T16:22:44.959Z,11.69
2023-09-20T16:25:13.411Z,11.94
2023-09-20T16:27:40.566Z,11.64
2023-09-20T16:30:08.260Z,11.02
2023-09-20T16:32:35.199Z,11.07
2023-09-20T16:35:02.168Z,10.93
2023-09-20T16:37:28.958Z,10.70
2023-09-20T16:39:57.853Z,10.65
2023-09-20T16:42:25.141Z,10.13
2023-09-20T16:44:51.877Z,10.12
2023-09-20T16:47:19.422Z,9.58
2023-09-20T16:49:46.562Z,9.80
2023-09-20T16:52:15.278Z,9.94
2023-09-20T16:54:44.651Z,10.24
2023-09-20T16:57:11.454Z,9.76
2023-09-20T16:59:38.660Z,9.46
2023-09-20T17:02:05.551Z,9.43
2023-09-20T17:04:34.548Z,9.07
2023-09-20T17:07:01.710Z,9.29
2023-09-20T17:09:30.659Z,9.09
2023-09-20T17:11:58.346Z,9.04
2023-09-20T17:14:25.562Z,8.58
2023-09-20T17:16:54.954Z,8.48
2023-09-20T17:19:22.080Z,8.52
2023-09-20T17:21:49.303Z,8.66
2023-09-20T17:24:16.085Z,8.36
2023-09-20T17:26:43.101Z,8.58
2023-09-20T17:29:09.929Z,8.24
2023-09-20T17:31:38.161Z,7.45
2023-09-20T17:34:06.859Z,7.44
2023-09-20T17:36:35.807Z,7.25
2023-09-20T17:39:03.372Z,7.14
2023-09-20T17:41:31.116Z,7.07
2023-09-20T17:43:59.459Z,7.18
2023-09-20T17:46:27.348Z,6.91
2023-09-20T17:48:55.169Z,6.85
2023-09-20T17:51:22.181Z,6.77
2023-09-20T17:53:49.114Z,6.93
2023-09-20T17:56:20.118Z,6.66
2023-09-20T17:58:47.771Z,6.79
2023-09-20T18:01:15.522Z,6.75
2023-09-20T18:03:46.703Z,6.60
2023-09-20T18:06:18.785Z,6.50
2023-09-20T18:08:50.139Z,6.13
2023-09-20T18:11:19.145Z,5.74
2023-09-20T18:13:46.213Z,5.76
2023-09-20T18:16:13.332Z,5.90
2023-09-20T18:18:41.415Z,5.78
2023-09-20T18:21:09.145Z,5.80
2023-09-20T18:23:38.868Z,5.83
2023-09-20T18:26:05.697Z,5.30
2023-09-20T18:28:32.858Z,5.73
2023-09-20T18:31:01.265Z,5.96
2023-09-20T18:33:28.257Z,5.71
2023-09-20T18:35:56.354Z,5.85
2023-09-20T18:38:23.951Z,6.21
2023-09-20T18:40:51.136Z,5.59
2023-09-20T18:43:20.649Z,5.62
2023-09-20T18:45:47.684Z,6.02
2023-09-20T18:48:16.091Z,5.85
2023-09-20T18:50:50.464Z,6.07
2023-09-20T18:53:19.049Z,5.54
2023-09-20T18:55:46.315Z,5.60
2023-09-20T18:58:15.361Z,5.75
2023-09-20T19:00:42.390Z,5.54
2023-09-20T19:03:10.391Z,5.34
2023-09-20T19:05:37.477Z,6.15
2023-09-20T19:08:04.677Z,5.83
2023-09-20T19:10:31.435Z,5.62
2023-09-20T19:12:58.281Z,5.29
2023-09-20T19:15:25.475Z,5.50
2023-09-20T19:17:52.367Z,5.70
2023-09-20T19:20:20.487Z,5.02
2023-09-20T19:22:47.887Z,5.25
2023-09-20T19:25:18.035Z,5.42
2023-09-20T19:27:49.460Z,5.02
2023-09-20T19:30:19.331Z,5.03
2023-09-20T19:32:47.068Z,5.24
2023-09-20T19:35:14.129Z,5.03
2023-09-20T19:37:40.926Z,5.32
2023-09-20T19:40:22.088Z,5.58
2023-09-20T19:42:51.884Z,5.59
2023-09-20T19:45:20.983Z,5.11
2023-09-20T19:47:49.401Z,4.80
2023-09-20T19:50:23.266Z,4.85
2023-09-20T19:52:51.254Z,4.85
2023-09-20T19:55:25.628Z,5.00
2023-09-20T19:57:54.341Z,4.89
2023-09-20T20:00:28.220Z,4.94
2023-09-20T20:03:00.090Z,5.26
2023-09-20T20:05:28.353Z,5.32
2023-09-20T20:07:58.421Z,5.45
2023-09-20T20:10:27.090Z,5.80
2023-09-20T20:12:57.900Z,5.25
2023-09-20T20:15:34.439Z,5.54
2023-09-20T20:18:02.423Z,5.19
2023-09-20T20:20:31.975Z,5.19
2023-09-20T20:23:06.706Z,5.42
2023-09-20T20:25:39.912Z,5.24
2023-09-20T20:28:34.423Z,4.81
2023-09-20T20:31:05.370Z,4.84
2023-09-20T20:33:35.371Z,4.82
2023-09-20T20:36:05.145Z,4.77
2023-09-20T20:38:32.724Z,4.90
2023-09-20T20:40:59.879Z,4.97
2023-09-20T20:43:29.024Z,4.92
2023-09-20T20:45:58.043Z,4.74
2023-09-20T20:48:25.433Z,4.65
2023-09-20T20:50:52.556Z,4.56
2023-09-20T20:53:22.229Z,4.68
2023-09-20T20:55:56.513Z,4.27
2023-09-20T20:58:25.413Z,4.66
2023-09-20T21:00:58.788Z,4.22
2023-09-20T21:03:26.187Z,4.43
2023-09-20T21:05:53.476Z,4.31
2023-09-20T21:08:22.335Z,4.23
2023-09-20T21:10:49.952Z,4.18
2023-09-20T21:13:16.769Z,3.65
2023-09-20T21:15:47.922Z,3.83
2023-09-20T21:18:19.933Z,4.13
2023-09-20T21:20:50.914Z,4.28
2023-09-20T21:23:18.794Z,3.83
2023-09-20T21:25:47.316Z,4.32
2023-09-20T21:28:14.596Z,4.10
2023-09-20T21:30:41.836Z,4.13
2023-09-20T21:33:11.528Z,3.71
2023-09-20T21:35:38.717Z,3.37
2023-09-20T21:38:08.582Z,3.14
2023-09-20T21:40:37.027Z,3.49
2023-09-20T21:43:04.047Z,3.90
2023-09-20T21:45:33.161Z,4.10
2023-09-20T21:48:00.503Z,3.75
2023-09-20T21:50:28.530Z,3.66
2023-09-20T21:52:59.104Z,3.47
2023-09-20T21:55:28.801Z,3.50
2023-09-20T21:57:57.352Z,3.48
2023-09-20T22:00:30.382Z,3.52
2023-09-20T22:03:06.188Z,3.64
2023-09-20T22:05:34.386Z,2.89
2023-09-20T22:08:03.381Z,2.75
2023-09-20T22:10:39.252Z,3.01
2023-09-20T22:13:09.522Z,3.21
2023-09-20T22:15:38.362Z,3.27
2023-09-20T22:18:24.059Z,2.82
2023-09-20T22:20:53.977Z,2.60
2023-09-20T22:23:21.500Z,3.04
2023-09-20T22:25:49.518Z,3.00
2023-09-20T22:28:18.995Z,3.25
2023-09-20T22:30:46.242Z,3.53
2023-09-20T22:33:13.837Z,3.28
2023-09-20T22:35:42.656Z,3.21
2023-09-20T22:38:10.662Z,3.29
2023-09-20T22:40:39.702Z,3.11
2023-09-20T22:43:06.642Z,3.15
2023-09-20T22:45:36.253Z,3.25
2023-09-20T22:48:06.820Z,2.97
2023-09-20T22:50:40.103Z,2.85
2023-09-20T22:53:09.680Z,2.93
2023-09-20T22:55:41.038Z,2.96
2023-09-20T22:58:15.662Z,2.52
2023-09-20T23:00:45.762Z,2.37
2023-09-20T23:03:14.309Z,2.69
2023-09-20T23:05:42.382Z,2.63
2023-09-20T23:08:09.528Z,2.58
2023-09-20T23:10:37.244Z,2.97
2023-09-20T23:13:04.654Z,2.51
2023-09-20T23:15:38.809Z,2.89
2023-09-20T23:18:11.657Z,3.05
2023-09-20T23:20:41.478Z,2.93
2023-09-20T23:23:12.506Z,2.97
2023-09-20T23:25:41.152Z,3.00
2023-09-20T23:28:11.125Z,3.06
2023-09-20T23:30:43.129Z,2.87
2023-09-20T23:33:13.921Z,2.76
2023-09-20T23:36:00.207Z,2.96
2023-09-20T23:38:40.271Z,2.83
2023-09-20T23:41:15.655Z,2.85
2023-09-20T23:43:44.094Z,2.83
2023-09-20T23:46:11.172Z,2.34
2023-09-20T23:48:39.405Z,2.62
2023-09-20T23:51:07.771Z,2.56
2023-09-20T23:53:37.785Z,2.55
2023-09-20T23:56:13.309Z,2.53
2023-09-20T23:58:41.188Z,2.47
